Bookmark and Share
Track history (hours):
 

American Spirit

More information available from US FCC via Universal Licensing System and Coast Guard Vessel Documentation Center.

Last reported at 2014-Apr-15 20:33 UTC. Time now 2014-Apr-18 10:36 UTC.
Position N 33°44' W 118°16'.

Length 3 m; draft 10 m.

Type: Tug. MMSI: 367022090.

NotesDate/timePositionNaut miles runAvg speedWind from/ knotsBaromVisibWave heightAir tempDewpointWater temp
2014-Apr-15 20:33N 33°44' W 118°16'0 0.1
2014-Apr-15 19:32N 33°44' W 118°16'0 0.1
2014-Apr-15 18:33N 33°44' W 118°16'0 0.0
2014-Apr-15 16:30N 33°44' W 118°16'0 0.0
2014-Apr-14 21:34N 33°44' W 118°16'0 0.0
2014-Apr-14 20:34N 33°44' W 118°16'  
2014-Apr-11 22:33N 33°44' W 118°16'0 0.1
2014-Apr-11 21:33N 33°44' W 118°16'2 1.9
2014-Apr-11 20:33N 33°43' W 118°14'3 2.7
2014-Apr-11 19:33N 33°46' W 118°14'0 0.5
2014-Apr-11 18:33N 33°46' W 118°13'3 2.8
2014-Apr-11 17:33N 33°44' W 118°16'0 0.0
2014-Apr-10 23:33N 33°44' W 118°16'0 0.0
2014-Apr-10 21:06N 33°44' W 118°16'  
2014-Apr-07 23:33N 33°44' W 118°16'2 2.0
2014-Apr-07 22:33N 33°44' W 118°13'2 2.3
2014-Apr-07 21:33N 33°46' W 118°13'0 0.0
2014-Apr-07 20:23N 33°46' W 118°13'0 0.1
2014-Apr-07 19:30N 33°46' W 118°14'3 1.5
2014-Apr-07 17:34N 33°44' W 118°16'  

Dump ship's entire track history

sailing weather and tide predictions

American Spirit — WDC4277 — position and weather